Time;durP1;ratioP1;P1;durP2;ratioP2;P2;SDS_P1;SDS_P2;PMS_P1;PMS_P2;Temp;Humidity;BMP_temperature;BMP_pressure;BME280_temperature;BME280_humidity;BME280_pressure;Samples;Min_cycle;Max_cycle;Signal;HPM_P1;HPM_P2
2024/01/25 00:00:27;;;;;;;74.23;67.17;;;8.80;99.90;;;;;;5020730;28;20441;-68
2024/01/25 00:02:54;;;;;;;67.90;61.37;;;8.80;99.90;;;;;;5024183;28;20468;-67
2024/01/25 00:05:21;;;;;;;51.97;46.90;;;8.80;99.90;;;;;;5026273;28;20449;-68
2024/01/25 00:07:48;;;;;;;67.40;59.90;;;8.90;99.90;;;;;;5034426;28;20459;-68
2024/01/25 00:10:17;;;;;;;102.73;95.23;;;8.70;99.90;;;;;;5026707;28;20480;-67
2024/01/25 00:12:44;;;;;;;111.07;103.27;;;8.70;99.90;;;;;;5019618;28;20857;-68
2024/01/25 00:15:11;;;;;;;102.00;94.97;;;8.70;99.90;;;;;;5018276;28;20452;-67
2024/01/25 00:17:38;;;;;;;79.53;72.53;;;8.70;99.90;;;;;;5034326;28;20455;-68
2024/01/25 00:20:06;;;;;;;103.20;96.00;;;8.70;99.90;;;;;;5033826;28;20914;-67
2024/01/25 00:22:33;;;;;;;94.87;88.10;;;8.70;99.90;;;;;;5027483;28;20480;-67
2024/01/25 00:25:00;;;;;;;103.80;97.30;;;8.70;99.90;;;;;;5032521;28;20986;-67
2024/01/25 00:27:28;;;;;;;124.17;116.83;;;8.70;99.90;;;;;;5034192;28;20448;-68
2024/01/25 00:29:55;;;;;;;131.47;124.20;;;8.60;99.90;;;;;;5026738;28;20919;-68
2024/01/25 00:32:21;;;;;;;162.47;152.97;;;8.60;99.90;;;;;;5032582;28;20472;-67
2024/01/25 00:34:49;;;;;;;152.77;144.07;;;8.60;99.90;;;;;;5034026;28;20463;-68
2024/01/25 00:37:16;;;;;;;151.30;142.77;;;8.60;99.90;;;;;;5029630;28;20843;-66
2024/01/25 00:39:43;;;;;;;176.90;167.10;;;8.60;99.90;;;;;;5013965;28;20463;-67
2024/01/25 00:42:13;;;;;;;160.50;150.30;;;8.60;99.90;;;;;;5022221;28;20483;-68
2024/01/25 00:44:42;;;;;;;185.13;175.20;;;8.50;99.90;;;;;;5022305;28;20453;-67
2024/01/25 00:47:10;;;;;;;231.70;219.20;;;8.40;99.90;;;;;;5022109;28;20452;-68
2024/01/25 00:49:37;;;;;;;229.03;217.20;;;8.40;99.90;;;;;;5013305;28;20509;-67
2024/01/25 00:52:05;;;;;;;196.43;186.50;;;8.40;99.90;;;;;;5024044;28;20477;-68
2024/01/25 00:54:32;;;;;;;226.73;214.43;;;8.40;99.90;;;;;;5033511;28;20489;-67
2024/01/25 00:57:00;;;;;;;188.70;177.50;;;8.40;99.90;;;;;;5025323;28;20457;-68
2024/01/25 00:59:27;;;;;;;199.17;188.27;;;8.30;99.90;;;;;;5020036;28;20455;-67
2024/01/25 01:01:58;;;;;;;244.27;231.57;;;8.20;99.90;;;;;;5029744;28;20456;-67
2024/01/25 01:04:26;;;;;;;229.73;219.07;;;8.20;99.90;;;;;;5027120;28;20460;-67
2024/01/25 01:06:53;;;;;;;249.17;236.87;;;8.10;99.90;;;;;;5032254;28;20468;-67
2024/01/25 01:09:20;;;;;;;270.63;255.57;;;8.00;99.90;;;;;;5021656;28;20832;-68
2024/01/25 01:11:47;;;;;;;316.03;300.57;;;8.00;99.90;;;;;;5029866;28;20452;-68
2024/01/25 01:14:14;;;;;;;320.70;304.97;;;8.00;99.90;;;;;;5033330;28;20448;-68
2024/01/25 01:16:41;;;;;;;329.87;313.03;;;7.90;99.90;;;;;;5026491;28;20448;-67
2024/01/25 01:19:09;;;;;;;308.80;292.93;;;8.00;99.90;;;;;;5033024;28;20456;-67
2024/01/25 01:21:35;;;;;;;292.13;277.30;;;7.90;99.90;;;;;;5032925;28;20467;-68
2024/01/25 01:24:02;;;;;;;312.00;296.50;;;7.90;99.90;;;;;;5023663;28;21007;-67
2024/01/25 01:26:29;;;;;;;331.83;313.53;;;7.90;99.90;;;;;;5024570;28;20452;-68
2024/01/25 01:28:58;;;;;;;344.17;326.40;;;7.80;99.90;;;;;;5032698;28;20459;-67
2024/01/25 01:31:25;;;;;;;319.50;303.63;;;7.80;99.90;;;;;;5024261;28;20480;-67
2024/01/25 01:33:52;;;;;;;347.00;327.67;;;7.70;99.90;;;;;;5023200;28;20472;-67
2024/01/25 01:36:21;;;;;;;329.13;312.37;;;7.70;99.90;;;;;;5021208;28;20456;-67
2024/01/25 01:38:49;;;;;;;342.80;325.47;;;7.60;99.90;;;;;;5021038;28;20489;-67
2024/01/25 01:41:16;;;;;;;354.00;336.00;;;7.50;99.90;;;;;;5032663;28;20448;-67
2024/01/25 01:43:42;;;;;;;379.03;358.97;;;7.60;99.90;;;;;;5029756;28;21006;-67
2024/01/25 01:46:13;;;;;;;410.20;387.43;;;7.50;99.90;;;;;;5024202;28;20973;-67
2024/01/25 01:48:40;;;;;;;397.17;376.90;;;7.60;99.90;;;;;;5032156;28;20974;-67
2024/01/25 01:51:08;;;;;;;391.97;370.33;;;7.60;99.90;;;;;;5023988;28;20537;-67
2024/01/25 01:53:37;;;;;;;385.83;365.17;;;7.60;99.90;;;;;;5023993;28;20846;-68
2024/01/25 01:56:06;;;;;;;427.07;401.87;;;7.50;99.90;;;;;;5032468;28;20456;-67
2024/01/25 01:58:33;;;;;;;431.40;406.20;;;7.50;99.90;;;;;;5031315;28;20462;-67
2024/01/25 02:01:01;;;;;;;426.97;402.33;;;7.40;99.90;;;;;;5032073;28;20456;-67
2024/01/25 02:03:27;;;;;;;417.43;393.73;;;7.40;99.90;;;;;;5024207;28;20476;-67
2024/01/25 02:05:55;;;;;;;432.17;408.07;;;7.40;99.90;;;;;;5032045;28;20460;-68
2024/01/25 02:08:21;;;;;;;433.50;408.40;;;7.40;99.90;;;;;;5030325;28;20460;-66
2024/01/25 02:10:49;;;;;;;440.03;413.83;;;7.40;99.90;;;;;;5028832;28;20483;-67
2024/01/25 02:13:16;;;;;;;425.90;401.13;;;7.40;99.90;;;;;;5019791;28;20481;-67
2024/01/25 02:15:43;;;;;;;424.43;398.90;;;7.50;99.90;;;;;;5028558;28;20463;-67
2024/01/25 02:18:10;;;;;;;436.60;411.63;;;7.50;99.90;;;;;;5020715;28;20464;-67
2024/01/25 02:20:37;;;;;;;450.23;422.77;;;7.50;99.90;;;;;;5019555;28;20444;-68
2024/01/25 02:23:05;;;;;;;460.70;431.70;;;7.50;99.90;;;;;;5023870;28;20473;-67
2024/01/25 02:25:32;;;;;;;445.80;417.43;;;7.50;99.90;;;;;;5025580;28;20449;-68
2024/01/25 02:27:59;;;;;;;442.00;415.00;;;7.60;99.90;;;;;;5021859;28;20460;-68
2024/01/25 02:30:25;;;;;;;453.70;425.27;;;7.60;99.90;;;;;;5031639;28;20999;-68
2024/01/25 02:32:52;;;;;;;446.83;420.83;;;7.60;99.90;;;;;;5023914;28;20468;-68
2024/01/25 02:35:19;;;;;;;430.47;404.90;;;7.70;99.90;;;;;;5023870;28;20551;-68
2024/01/25 02:37:46;;;;;;;420.17;394.90;;;7.70;99.90;;;;;;5031790;28;20464;-67
2024/01/25 02:40:15;;;;;;;417.23;392.27;;;7.70;99.90;;;;;;5023327;28;20456;-68
2024/01/25 02:42:41;;;;;;;429.03;404.60;;;7.70;99.90;;;;;;5028625;28;20472;-67
2024/01/25 02:45:09;;;;;;;435.23;407.20;;;7.60;99.90;;;;;;5032056;28;20460;-68
2024/01/25 02:47:36;;;;;;;434.07;407.97;;;7.60;99.90;;;;;;5031948;28;20479;-66
2024/01/25 02:50:03;;;;;;;431.77;405.77;;;7.60;99.90;;;;;;5028981;28;20483;-67
2024/01/25 02:52:29;;;;;;;429.30;404.63;;;7.60;99.90;;;;;;5025745;28;20472;-68
2024/01/25 02:54:56;;;;;;;445.43;416.87;;;7.60;99.90;;;;;;5024025;28;20457;-67
2024/01/25 02:57:24;;;;;;;461.53;431.53;;;7.50;99.90;;;;;;5035981;28;20846;-68
2024/01/25 02:59:51;;;;;;;468.43;438.23;;;7.60;99.90;;;;;;5020144;28;20452;-67
2024/01/25 03:02:19;;;;;;;458.23;430.97;;;7.50;99.90;;;;;;5031213;28;20480;-68
2024/01/25 03:04:45;;;;;;;475.33;445.53;;;7.50;99.90;;;;;;5032310;28;20582;-68
2024/01/25 03:07:12;;;;;;;475.63;447.10;;;7.40;99.90;;;;;;5027490;28;20453;-68
2024/01/25 03:09:39;;;;;;;484.77;454.97;;;7.30;99.90;;;;;;5015403;28;20453;-68
2024/01/25 03:12:07;;;;;;;500.90;470.30;;;7.20;99.90;;;;;;5026558;28;20491;-67
2024/01/25 03:14:35;;;;;;;518.27;485.57;;;7.10;99.90;;;;;;5035422;28;20452;-68
2024/01/25 03:17:02;;;;;;;558.87;523.27;;;7.10;99.90;;;;;;5032952;28;20462;-67
2024/01/25 03:19:29;;;;;;;568.37;532.40;;;7.10;99.90;;;;;;5029562;28;20452;-67
2024/01/25 03:21:56;;;;;;;595.53;557.53;;;7.00;99.90;;;;;;5028901;28;20456;-67
2024/01/25 03:24:24;;;;;;;644.13;600.97;;;7.00;99.90;;;;;;5015653;28;20452;-67
2024/01/25 03:26:50;;;;;;;678.33;633.17;;;6.90;99.90;;;;;;5032768;28;20479;-67
2024/01/25 03:29:17;;;;;;;713.53;666.70;;;6.90;99.90;;;;;;5026679;28;20544;-67
2024/01/25 03:31:45;;;;;;;767.30;715.70;;;6.80;99.90;;;;;;5025335;28;20987;-67
2024/01/25 03:34:12;;;;;;;757.23;709.33;;;6.80;99.90;;;;;;5034861;28;20835;-67
2024/01/25 03:36:40;;;;;;;783.33;731.97;;;6.90;99.90;;;;;;5027141;28;20459;-68
2024/01/25 03:39:07;;;;;;;783.23;730.67;;;6.90;99.90;;;;;;5026867;28;20814;-67
2024/01/25 03:41:34;;;;;;;792.07;738.47;;;6.90;99.90;;;;;;5028837;28;20445;-67
2024/01/25 03:44:00;;;;;;;774.77;723.37;;;6.90;99.90;;;;;;5025043;28;20472;-67
2024/01/25 03:46:27;;;;;;;782.70;728.90;;;6.80;99.90;;;;;;5034731;28;20452;-67
2024/01/25 03:48:55;;;;;;;787.07;732.23;;;6.90;99.90;;;;;;5025159;28;20833;-67
2024/01/25 03:51:23;;;;;;;793.30;739.90;;;6.90;99.90;;;;;;5023352;28;20484;-67
2024/01/25 03:53:52;;;;;;;797.63;743.43;;;6.90;99.90;;;;;;5022989;28;20507;-68
2024/01/25 03:56:19;;;;;;;799.97;745.77;;;6.90;99.90;;;;;;5022700;28;20449;-67
2024/01/25 03:58:46;;;;;;;820.53;765.30;;;6.80;99.90;;;;;;5019120;28;20459;-67
2024/01/25 04:01:13;;;;;;;819.70;764.77;;;6.70;99.90;;;;;;5034182;28;20447;-68
2024/01/25 04:03:40;;;;;;;822.50;767.87;;;6.70;99.90;;;;;;5034784;28;20471;-67
2024/01/25 04:06:08;;;;;;;829.40;772.27;;;6.70;99.90;;;;;;5026219;28;20459;-67
2024/01/25 04:08:35;;;;;;;847.33;790.70;;;6.70;99.90;;;;;;5024719;28;20448;-68
2024/01/25 04:11:01;;;;;;;853.90;795.20;;;6.60;99.90;;;;;;5027953;28;20479;-67
2024/01/25 04:13:28;;;;;;;852.80;792.47;;;6.60;99.90;;;;;;5019112;28;20484;-68
2024/01/25 04:15:55;;;;;;;859.93;799.00;;;6.50;99.90;;;;;;5031944;28;20534;-73
2024/01/25 04:18:22;;;;;;;869.70;806.70;;;6.40;99.90;;;;;;5021046;28;20445;-67
2024/01/25 04:20:50;;;;;;;865.87;803.43;;;6.40;99.90;;;;;;5026553;28;20448;-67
2024/01/25 04:23:18;;;;;;;870.03;807.13;;;6.40;99.90;;;;;;5022410;28;20547;-67
2024/01/25 04:25:45;;;;;;;868.23;804.97;;;6.40;99.90;;;;;;5014898;28;20953;-70
2024/01/25 04:28:12;;;;;;;869.53;808.57;;;6.30;99.90;;;;;;5010268;28;20447;-71
2024/01/25 04:30:39;;;;;;;869.47;805.87;;;6.20;99.90;;;;;;5024350;28;20481;-67
2024/01/25 04:33:06;;;;;;;876.63;813.03;;;6.20;99.90;;;;;;5013800;28;20469;-67
2024/01/25 04:35:33;;;;;;;870.73;806.37;;;6.20;99.90;;;;;;5014111;28;20448;-68
2024/01/25 04:38:00;;;;;;;846.47;781.37;;;6.10;99.90;;;;;;5014506;28;20461;-67
2024/01/25 04:40:28;;;;;;;855.07;790.53;;;6.10;99.90;;;;;;5025151;28;20455;-67
2024/01/25 04:42:54;;;;;;;859.57;794.60;;;6.00;99.90;;;;;;5015234;28;20841;-67
2024/01/25 04:45:21;;;;;;;904.23;837.33;;;6.00;99.90;;;;;;5021266;28;20854;-67
2024/01/25 04:47:48;;;;;;;915.87;846.90;;;6.00;99.90;;;;;;5023057;28;20799;-66
2024/01/25 04:50:15;;;;;;;912.47;842.50;;;6.00;99.90;;;;;;5026246;28;20940;-67
2024/01/25 04:52:42;;;;;;;903.60;834.90;;;5.90;99.90;;;;;;5025373;28;20915;-67
2024/01/25 04:55:09;;;;;;;902.77;833.30;;;5.90;99.90;;;;;;5024318;28;20855;-66
2024/01/25 04:57:38;;;;;;;908.03;839.83;;;5.80;99.90;;;;;;5026536;28;20532;-67
2024/01/25 05:00:06;;;;;;;911.73;838.37;;;5.90;99.90;;;;;;5032246;28;20456;-67
2024/01/25 05:02:33;;;;;;;909.10;840.97;;;5.90;99.90;;;;;;5033227;28;20506;-67
2024/01/25 05:05:00;;;;;;;914.55;839.35;;;5.90;99.90;;;;;;5024680;28;20528;-67
2024/01/25 05:07:26;;;;;;;893.57;824.07;;;5.90;99.90;;;;;;5028778;28;20201;-67
2024/01/25 05:09:53;;;;;;;909.70;839.20;;;5.80;99.90;;;;;;5032892;28;20456;-67
2024/01/25 05:12:20;;;;;;;915.67;843.27;;;5.80;99.90;;;;;;5032843;28;20492;-67
2024/01/25 05:14:48;;;;;;;932.80;860.83;;;5.80;99.90;;;;;;5025004;28;20452;-66
2024/01/25 05:17:15;;;;;;;924.07;853.70;;;5.70;99.90;;;;;;5023819;28;20450;-67
2024/01/25 05:19:41;;;;;;;930.77;859.80;;;5.70;99.90;;;;;;5012525;28;20457;-67
2024/01/25 05:22:08;;;;;;;930.70;859.67;;;5.60;99.90;;;;;;5024560;28;20486;-67
2024/01/25 05:24:35;;;;;;;930.67;859.70;;;5.60;99.90;;;;;;5022145;28;20476;-67
2024/01/25 05:27:02;;;;;;;933.57;862.00;;;5.50;99.90;;;;;;5023537;28;20456;-66
2024/01/25 05:29:29;;;;;;;874.00;804.33;;;5.50;99.90;;;;;;5032960;28;20456;-67
2024/01/25 05:31:57;;;;;;;873.63;803.90;;;5.50;99.90;;;;;;5032623;28;20480;-67
2024/01/25 05:34:25;;;;;;;872.93;803.00;;;5.40;99.90;;;;;;5032907;28;20458;-68
2024/01/25 05:36:52;;;;;;;870.50;799.10;;;5.40;99.90;;;;;;5032690;28;20832;-67
2024/01/25 05:39:19;;;;;;;872.73;802.17;;;5.40;99.90;;;;;;5022088;28;20459;-66
2024/01/25 05:41:46;;;;;;;867.60;796.17;;;5.30;99.90;;;;;;5021217;28;20453;-66
2024/01/25 05:44:13;;;;;;;875.53;805.40;;;5.30;99.90;;;;;;5017735;28;20463;-66
2024/01/25 05:46:40;;;;;;;869.83;799.00;;;5.30;99.90;;;;;;5032366;28;20444;-67
2024/01/25 05:49:08;;;;;;;883.10;810.17;;;5.20;99.90;;;;;;5023438;28;20460;-67
2024/01/25 05:51:35;;;;;;;875.57;801.67;;;5.20;99.90;;;;;;5025631;28;20477;-67
2024/01/25 05:54:02;;;;;;;870.10;796.93;;;5.20;99.90;;;;;;5022786;28;20499;-66
2024/01/25 05:56:29;;;;;;;871.07;798.53;;;5.20;99.90;;;;;;5032749;28;20452;-66
2024/01/25 05:58:56;;;;;;;870.90;799.10;;;5.20;99.90;;;;;;5025926;28;20459;-67
2024/01/25 06:01:23;;;;;;;865.90;793.43;;;5.30;99.90;;;;;;5032944;28;20846;-67
2024/01/25 06:03:50;;;;;;;877.30;807.20;;;5.40;99.90;;;;;;5032794;28;20483;-65
2024/01/25 06:06:18;;;;;;;864.17;793.87;;;5.40;99.90;;;;;;5023271;28;20460;-67
2024/01/25 06:08:45;;;;;;;872.67;800.97;;;5.30;99.90;;;;;;5032505;28;20455;-66
2024/01/25 06:11:12;;;;;;;881.63;809.57;;;5.30;99.90;;;;;;5019339;28;20488;-67
2024/01/25 06:13:39;;;;;;;874.80;802.50;;;5.30;99.90;;;;;;5022261;28;20509;-67
2024/01/25 06:16:06;;;;;;;888.80;814.87;;;5.20;99.90;;;;;;5031634;28;20458;-66
2024/01/25 06:18:33;;;;;;;889.80;816.27;;;5.20;99.90;;;;;;5025730;28;20464;-66
2024/01/25 06:21:00;;;;;;;882.10;809.57;;;5.30;99.90;;;;;;5030566;28;20452;-70
2024/01/25 06:23:28;;;;;;;881.73;807.77;;;5.40;99.90;;;;;;5026517;28;20480;-67
2024/01/25 06:25:54;;;;;;;881.30;806.70;;;5.40;99.90;;;;;;5030062;28;20463;-66
2024/01/25 06:28:21;;;;;;;894.03;819.00;;;5.30;99.90;;;;;;5024786;28;20456;-66
2024/01/25 06:30:48;;;;;;;888.67;812.20;;;5.30;99.90;;;;;;5013663;28;20453;-66
2024/01/25 06:33:15;;;;;;;898.00;822.10;;;5.30;99.90;;;;;;5023796;28;20472;-67
2024/01/25 06:35:42;;;;;;;905.43;829.00;;;5.20;99.90;;;;;;5031756;28;20456;-66
2024/01/25 06:38:08;;;;;;;896.40;821.20;;;5.00;99.90;;;;;;5023306;28;20452;-66
2024/01/25 06:40:36;;;;;;;898.50;824.70;;;4.80;99.90;;;;;;5025342;28;20453;-66
2024/01/25 06:43:03;;;;;;;899.53;823.90;;;4.60;99.90;;;;;;5022027;28;20847;-66
2024/01/25 06:45:30;;;;;;;897.03;819.03;;;4.50;99.90;;;;;;5017461;28;20455;-66
2024/01/25 06:47:57;;;;;;;889.83;812.50;;;4.40;99.90;;;;;;5029335;28;20460;-66
2024/01/25 06:50:24;;;;;;;889.50;808.70;;;4.40;99.90;;;;;;5026562;28;20464;-66
2024/01/25 06:52:53;;;;;;;889.03;807.37;;;4.50;99.90;;;;;;5028251;28;20845;-66
2024/01/25 06:55:20;;;;;;;900.53;816.67;;;4.50;99.90;;;;;;5012736;28;20549;-65
2024/01/25 06:57:48;;;;;;;908.37;822.67;;;4.50;99.90;;;;;;5015626;28;20449;-65
2024/01/25 07:00:16;;;;;;;892.40;805.77;;;4.50;99.90;;;;;;5031191;28;20858;-66
2024/01/25 07:02:43;;;;;;;899.80;812.70;;;4.60;99.90;;;;;;5014436;28;20472;-66
2024/01/25 07:05:10;;;;;;;905.30;819.50;;;4.50;99.90;;;;;;5027874;28;20828;-66
2024/01/25 07:07:38;;;;;;;917.97;829.97;;;4.60;99.90;;;;;;5017883;28;20452;-65
2024/01/25 07:10:06;;;;;;;915.33;826.40;;;4.60;99.90;;;;;;5030239;28;20459;-65
2024/01/25 07:12:32;;;;;;;914.10;824.47;;;4.60;99.90;;;;;;5029899;28;20530;-66
2024/01/25 07:15:01;;;;;;;918.13;830.07;;;4.60;99.90;;;;;;5018618;28;20951;-66
2024/01/25 07:17:28;;;;;;;905.83;817.03;;;4.60;99.90;;;;;;5025564;28;20459;-66
2024/01/25 07:19:54;;;;;;;913.97;823.80;;;4.50;99.90;;;;;;5023198;28;20459;-66
2024/01/25 07:22:22;;;;;;;925.53;834.20;;;4.50;99.90;;;;;;5031319;28;20468;-67
2024/01/25 07:24:49;;;;;;;921.47;829.13;;;4.50;99.90;;;;;;5030760;28;20467;-66
2024/01/25 07:27:16;;;;;;;915.17;824.10;;;4.50;99.90;;;;;;5011013;28;20496;-65
2024/01/25 07:29:45;;;;;;;931.90;836.27;;;4.50;99.90;;;;;;5015739;28;20453;-65
2024/01/25 07:32:13;;;;;;;924.80;831.87;;;4.50;99.90;;;;;;5014548;28;20485;-66
2024/01/25 07:34:40;;;;;;;918.10;825.80;;;4.60;99.90;;;;;;5019852;28;20970;-66
2024/01/25 07:37:06;;;;;;;907.50;817.03;;;4.60;99.90;;;;;;5022528;28;21361;-66
2024/01/25 07:39:33;;;;;;;896.67;805.27;;;4.60;99.90;;;;;;5025297;28;20461;-66
2024/01/25 07:42:00;;;;;;;915.10;822.23;;;4.60;99.90;;;;;;5031510;28;20454;-65
2024/01/25 07:44:27;;;;;;;901.00;809.67;;;4.70;99.90;;;;;;5029144;28;20452;-66
2024/01/25 07:46:54;;;;;;;909.07;816.60;;;4.70;99.90;;;;;;5031339;28;20959;-66
2024/01/25 07:49:22;;;;;;;905.03;814.40;;;4.70;99.90;;;;;;5027830;28;20632;-66
2024/01/25 07:51:48;;;;;;;895.93;804.73;;;4.70;99.90;;;;;;5034563;28;20632;-66
2024/01/25 07:54:15;;;;;;;894.73;802.40;;;4.70;99.90;;;;;;5031627;28;20873;-65
2024/01/25 07:56:42;;;;;;;896.27;802.87;;;4.80;99.90;;;;;;5026351;28;20458;-66
2024/01/25 07:59:09;;;;;;;889.43;795.50;;;4.70;99.90;;;;;;5025549;28;20993;-66
2024/01/25 08:01:37;;;;;;;889.90;795.00;;;4.70;99.90;;;;;;5025992;28;20475;-66
2024/01/25 08:04:04;;;;;;;885.97;790.47;;;4.90;99.90;;;;;;5023673;28;20468;-66
2024/01/25 08:06:32;;;;;;;915.47;819.97;;;4.90;99.90;;;;;;5028580;28;20458;-66
2024/01/25 08:08:59;;;;;;;916.53;820.60;;;5.00;99.90;;;;;;5033928;28;20543;-66
2024/01/25 08:11:26;;;;;;;920.37;823.77;;;5.20;99.90;;;;;;5033966;28;20462;-65
2024/01/25 08:13:53;;;;;;;931.43;834.80;;;5.30;99.90;;;;;;5025229;28;20484;-65
2024/01/25 08:16:20;;;;;;;941.47;838.70;;;5.40;99.90;;;;;;5028425;28;20530;-66
2024/01/25 08:18:47;;;;;;;931.67;830.30;;;5.50;99.90;;;;;;5019905;28;20456;-63
2024/01/25 08:21:15;;;;;;;906.67;811.67;;;5.50;99.90;;;;;;5033258;28;20207;-66
2024/01/25 08:23:44;;;;;;;918.50;824.70;;;5.60;99.90;;;;;;5032991;28;20498;-65
2024/01/25 08:26:12;;;;;;;927.60;831.17;;;5.70;99.90;;;;;;5032005;28;20460;-66
2024/01/25 08:28:40;;;;;;;913.93;819.83;;;5.70;99.90;;;;;;5034235;28;20460;-65
2024/01/25 08:31:09;;;;;;;919.90;824.20;;;5.80;99.90;;;;;;5025926;28;21000;-66
2024/01/25 08:33:35;;;;;;;909.47;816.73;;;5.80;99.90;;;;;;5034012;28;20496;-65
2024/01/25 08:36:02;;;;;;;893.40;800.10;;;5.80;99.90;;;;;;5034016;28;20539;-66
2024/01/25 08:38:29;;;;;;;906.43;812.00;;;5.80;99.90;;;;;;5033550;28;20452;-65
2024/01/25 08:40:57;;;;;;;886.77;793.23;;;5.90;99.90;;;;;;5032772;28;20471;-67
2024/01/25 08:43:25;;;;;;;892.27;799.13;;;5.90;99.90;;;;;;5014406;28;20551;-66
2024/01/25 08:45:52;;;;;;;890.27;798.90;;;6.00;99.90;;;;;;5023322;28;20452;-66
2024/01/25 08:48:19;;;;;;;887.17;796.20;;;6.10;99.90;;;;;;5029356;28;20468;-67
2024/01/25 08:50:46;;;;;;;886.83;796.67;;;6.10;99.90;;;;;;5022168;28;20453;-67
2024/01/25 08:53:13;;;;;;;888.10;799.00;;;6.20;99.90;;;;;;5016505;28;20487;-66
2024/01/25 08:55:41;;;;;;;881.20;792.33;;;6.30;99.90;;;;;;5034335;28;20452;-67
2024/01/25 08:58:09;;;;;;;891.50;803.90;;;6.40;99.90;;;;;;5025524;28;20456;-66
2024/01/25 09:00:37;;;;;;;880.33;794.67;;;6.50;99.90;;;;;;5032056;28;20482;-66
2024/01/25 09:03:06;;;;;;;887.40;803.00;;;6.50;99.90;;;;;;5033615;28;20883;-66
2024/01/25 09:05:34;;;;;;;892.30;808.67;;;6.60;99.90;;;;;;5027103;28;20944;-66
2024/01/25 09:08:01;;;;;;;878.50;796.50;;;6.60;99.90;;;;;;5032078;28;20460;-66
2024/01/25 09:10:28;;;;;;;882.97;801.50;;;6.70;99.90;;;;;;5032057;28;20522;-65
2024/01/25 09:12:55;;;;;;;882.07;802.70;;;6.70;99.90;;;;;;5016899;28;20480;-65
2024/01/25 09:15:23;;;;;;;873.27;796.00;;;6.70;99.90;;;;;;5028951;28;20515;-66
2024/01/25 09:17:50;;;;;;;876.60;798.80;;;6.70;99.90;;;;;;5030386;28;20467;-65
2024/01/25 09:20:17;;;;;;;867.00;792.60;;;6.70;99.90;;;;;;5032919;28;20452;-67
2024/01/25 09:22:44;;;;;;;863.67;789.27;;;6.70;99.90;;;;;;5025551;28;20480;-66
2024/01/25 09:25:10;;;;;;;854.23;782.07;;;6.80;99.90;;;;;;5029928;28;20453;-67
2024/01/25 09:27:38;;;;;;;852.03;781.97;;;6.80;99.90;;;;;;5028650;28;20947;-65
2024/01/25 09:30:06;;;;;;;842.07;772.50;;;6.90;99.90;;;;;;5024744;28;20511;-66
2024/01/25 09:32:34;;;;;;;845.07;777.60;;;7.10;99.90;;;;;;5032821;28;20484;-65
2024/01/25 09:35:01;;;;;;;837.47;772.30;;;7.20;99.90;;;;;;5031694;28;20944;-66
2024/01/25 09:37:27;;;;;;;815.87;754.90;;;7.30;99.90;;;;;;5027216;28;20483;-66
2024/01/25 09:39:54;;;;;;;815.23;755.33;;;7.30;99.90;;;;;;5024519;28;20457;-66
2024/01/25 09:42:21;;;;;;;783.63;729.40;;;7.40;99.90;;;;;;5020042;28;20842;-66
2024/01/25 09:44:48;;;;;;;766.93;711.87;;;7.40;99.90;;;;;;5029637;28;20462;-65
2024/01/25 09:47:16;;;;;;;739.73;690.63;;;7.50;99.90;;;;;;5032741;28;20510;-67
2024/01/25 09:49:44;;;;;;;735.57;687.07;;;7.60;99.90;;;;;;5025207;28;20539;-66
2024/01/25 09:52:13;;;;;;;699.43;654.23;;;7.70;99.90;;;;;;5020928;28;20489;-66
2024/01/25 09:54:40;;;;;;;690.10;647.97;;;7.70;99.90;;;;;;5020866;28;20465;-66
2024/01/25 09:57:14;;;;;;;665.00;624.70;;;7.70;99.90;;;;;;5031874;28;20460;-66
2024/01/25 09:59:41;;;;;;;661.33;623.23;;;7.70;99.90;;;;;;5016713;28;20459;-66
2024/01/25 10:02:10;;;;;;;630.17;595.80;;;7.80;99.90;;;;;;5031910;28;20476;-66
2024/01/25 10:04:37;;;;;;;590.80;556.93;;;7.90;99.90;;;;;;5032294;28;20463;-66
2024/01/25 10:07:05;;;;;;;543.27;512.93;;;7.90;99.90;;;;;;5015913;28;20449;-67
2024/01/25 10:09:39;;;;;;;542.03;512.30;;;8.00;99.90;;;;;;5032122;28;20456;-66
2024/01/25 10:12:07;;;;;;;489.30;463.47;;;8.10;99.90;;;;;;5020968;28;20976;-66
2024/01/25 10:14:34;;;;;;;484.93;460.13;;;8.20;99.90;;;;;;5020851;28;20844;-67
2024/01/25 10:17:02;;;;;;;404.73;382.23;;;8.30;99.90;;;;;;5020753;28;20457;-67
2024/01/25 10:19:29;;;;;;;371.03;351.93;;;8.40;99.90;;;;;;5017813;28;20460;-67
2024/01/25 10:21:57;;;;;;;285.20;269.20;;;8.50;99.90;;;;;;5022465;28;20976;-67
2024/01/25 10:24:25;;;;;;;251.77;236.23;;;8.50;99.90;;;;;;5025581;28;20460;-67
2024/01/25 10:26:52;;;;;;;234.27;219.47;;;8.50;99.90;;;;;;5023631;28;20458;-67
2024/01/25 10:29:18;;;;;;;236.07;221.67;;;8.60;99.90;;;;;;5027811;28;20461;-66
2024/01/25 10:31:46;;;;;;;204.03;190.70;;;8.70;99.90;;;;;;5028315;28;20456;-67
2024/01/25 10:34:15;;;;;;;153.77;142.37;;;8.70;99.90;;;;;;5032029;28;20484;-66
2024/01/25 10:36:42;;;;;;;103.33;94.83;;;8.70;99.90;;;;;;5016286;28;20456;-67
2024/01/25 10:39:10;;;;;;;93.00;84.33;;;8.80;99.90;;;;;;5022907;28;20456;-67
2024/01/25 10:41:39;;;;;;;111.83;100.63;;;8.80;99.90;;;;;;5032048;28;20876;-67
2024/01/25 10:44:07;;;;;;;97.70;87.23;;;8.90;99.90;;;;;;5023853;28;20555;-67
2024/01/25 10:46:34;;;;;;;76.67;69.07;;;9.00;99.90;;;;;;5031899;28;20513;-66
2024/01/25 10:49:02;;;;;;;74.63;62.60;;;9.10;99.90;;;;;;5015334;28;20452;-68
2024/01/25 10:51:31;;;;;;;93.00;80.63;;;9.00;99.90;;;;;;5026276;28;20939;-67
2024/01/25 10:53:58;;;;;;;85.67;61.73;;;9.20;99.90;;;;;;5029420;28;20476;-67
2024/01/25 10:56:25;;;;;;;61.60;49.23;;;9.40;99.90;;;;;;5018684;28;20484;-68
2024/01/25 10:58:53;;;;;;;77.60;45.33;;;9.40;99.90;;;;;;5019769;28;20463;-67
2024/01/25 11:01:20;;;;;;;74.13;41.67;;;9.50;99.90;;;;;;5016286;28;20463;-67
2024/01/25 11:03:47;;;;;;;52.47;39.80;;;9.60;99.90;;;;;;5023557;28;20475;-66
2024/01/25 11:06:14;;;;;;;64.93;38.53;;;9.70;99.90;;;;;;5023657;28;20479;-66
2024/01/25 11:08:42;;;;;;;70.47;37.40;;;9.60;99.90;;;;;;5016325;28;20456;-67
2024/01/25 11:11:11;;;;;;;45.87;26.43;;;9.60;99.90;;;;;;5022972;28;20456;-67
2024/01/25 11:13:40;;;;;;;55.10;31.77;;;9.60;99.90;;;;;;5023450;28;20494;-67
2024/01/25 11:16:20;;;;;;;53.33;33.80;;;9.70;99.90;;;;;;5013868;28;20459;-67
2024/01/25 11:18:51;;;;;;;64.67;28.67;;;9.80;99.90;;;;;;5023451;28;20922;-66
2024/01/25 11:21:27;;;;;;;68.00;26.20;;;9.90;99.90;;;;;;5027018;28;20966;-67
2024/01/25 11:24:03;;;;;;;72.57;25.27;;;10.10;99.90;;;;;;5027256;28;20533;-68
2024/01/25 11:26:32;;;;;;;78.87;29.53;;;10.20;99.90;;;;;;5029520;28;20521;-68
2024/01/25 11:29:00;;;;;;;62.47;25.20;;;10.60;99.90;;;;;;5031622;28;20459;-67
2024/01/25 11:31:29;;;;;;;49.07;23.17;;;10.70;99.90;;;;;;5028663;28;21013;-68
2024/01/25 11:33:58;;;;;;;53.40;22.13;;;10.90;99.90;;;;;;5027060;28;20491;-67
2024/01/25 11:36:25;;;;;;;50.67;19.53;;;10.80;99.90;;;;;;5021794;28;20944;-68
2024/01/25 11:38:52;;;;;;;46.60;21.60;;;11.00;99.90;;;;;;5023950;28;20459;-67
2024/01/25 11:41:19;;;;;;;50.83;20.93;;;11.20;99.90;;;;;;5033455;28;20542;-67
2024/01/25 11:43:46;;;;;;;41.43;18.40;;;11.10;99.90;;;;;;5034373;28;20476;-67
2024/01/25 11:46:13;;;;;;;50.90;17.80;;;11.00;99.90;;;;;;5033465;28;20535;-67
2024/01/25 11:48:42;;;;;;;52.43;18.73;;;11.20;99.90;;;;;;5026828;28;20457;-68
2024/01/25 11:51:10;;;;;;;49.37;18.00;;;11.30;99.90;;;;;;5014530;28;20449;-68
2024/01/25 11:53:37;;;;;;;65.17;19.50;;;11.50;99.90;;;;;;5014447;28;20485;-67
2024/01/25 11:56:07;;;;;;;38.43;17.47;;;11.50;99.90;;;;;;5014720;28;20455;-67
2024/01/25 11:58:34;;;;;;;45.97;17.67;;;11.60;99.90;;;;;;5020347;28;20452;-68
2024/01/25 12:01:03;;;;;;;53.50;20.77;;;11.70;99.90;;;;;;5024278;28;20467;-68
2024/01/25 12:03:30;;;;;;;50.30;16.27;;;11.80;99.90;;;;;;5014875;28;20476;-67
2024/01/25 12:06:00;;;;;;;44.20;16.20;;;11.90;99.90;;;;;;5014556;28;20449;-68
2024/01/25 12:08:27;;;;;;;43.07;17.77;;;12.20;99.90;;;;;;5014165;28;21007;-68
2024/01/25 12:11:04;;;;;;;40.83;16.30;;;12.10;99.90;;;;;;5014655;28;20460;-66
2024/01/25 12:13:33;;;;;;;55.60;19.70;;;12.00;99.90;;;;;;5014955;28;20538;-67
2024/01/25 12:16:00;;;;;;;43.33;17.10;;;12.10;99.90;;;;;;5014722;28;20460;-68
2024/01/25 12:18:27;;;;;;;40.23;17.50;;;12.00;99.90;;;;;;5019702;28;20472;-67
2024/01/25 12:20:55;;;;;;;50.77;16.17;;;11.90;99.90;;;;;;5033986;28;20957;-67